createdAt,value
2019-02-25T00:00:03.815Z,1040.7
2019-02-25T00:01:03.629Z,1040.7
2019-02-25T00:02:03.176Z,1040.7
2019-02-25T00:03:03.655Z,1040.8
2019-02-25T00:04:03.872Z,1040.7
2019-02-25T00:05:03.633Z,1040.8
2019-02-25T00:06:03.062Z,1040.8
2019-02-25T00:07:03.588Z,1040.8
2019-02-25T00:08:03.888Z,1040.8
2019-02-25T00:09:03.642Z,1040.7
2019-02-25T00:10:03.971Z,1040.8
2019-02-25T00:11:03.354Z,1040.9
2019-02-25T00:12:03.964Z,1040.8
2019-02-25T00:13:03.568Z,1040.9
2019-02-25T00:14:02.985Z,1040.9
2019-02-25T00:15:03.694Z,1040.9
2019-02-25T00:16:03.496Z,1040.8
2019-02-25T00:17:03.597Z,1040.8
2019-02-25T00:18:03.149Z,1040.9
2019-02-25T00:19:03.530Z,1040.9
2019-02-25T00:20:03.570Z,1040.9
2019-02-25T00:21:03.868Z,1040.9
2019-02-25T00:22:03.425Z,1041
2019-02-25T00:23:03.644Z,1040.9
2019-02-25T00:24:03.258Z,1040.9
2019-02-25T00:25:03.792Z,1040.8
2019-02-25T00:26:02.997Z,1040.8
2019-02-25T00:27:03.467Z,1040.8
2019-02-25T00:28:04.000Z,1040.9
2019-02-25T00:29:03.651Z,1040.8
2019-02-25T00:30:03.225Z,1040.8
2019-02-25T00:31:03.575Z,1040.9
2019-02-25T00:32:03.863Z,1040.9
2019-02-25T00:33:03.541Z,1040.9
2019-02-25T00:34:03.606Z,1040.9
2019-02-25T00:35:03.518Z,1040.9
2019-02-25T00:36:04.006Z,1040.9
2019-02-25T00:37:03.720Z,1040.8
2019-02-25T00:38:03.951Z,1040.9
2019-02-25T00:39:03.520Z,1040.7
2019-02-25T00:40:03.198Z,1040.8
2019-02-25T00:41:03.270Z,1040.8
2019-02-25T00:42:03.357Z,1040.9
2019-02-25T00:43:03.096Z,1040.8
2019-02-25T00:44:03.586Z,1040.9
2019-02-25T00:45:03.606Z,1040.9
2019-02-25T00:46:03.231Z,1040.9
2019-02-25T00:47:03.933Z,1040.9
2019-02-25T00:48:03.919Z,1040.9
2019-02-25T00:49:02.992Z,1041.1
2019-02-25T00:50:03.987Z,1040.9
2019-02-25T00:51:03.221Z,1041
2019-02-25T00:52:03.463Z,1041
2019-02-25T00:53:03.868Z,1041
2019-02-25T00:54:03.327Z,1041
2019-02-25T00:55:03.524Z,1041.1
2019-02-25T00:56:03.183Z,1041.1
2019-02-25T00:57:03.757Z,1041.1
2019-02-25T00:58:03.291Z,1041.1
2019-02-25T00:59:03.311Z,1041.1
2019-02-25T01:00:03.853Z,1041
2019-02-25T01:01:03.751Z,1041.1
2019-02-25T01:02:03.374Z,1041.1
2019-02-25T01:03:03.374Z,1041.1
2019-02-25T01:04:02.984Z,1041
2019-02-25T01:05:03.409Z,1041
2019-02-25T01:06:03.686Z,1041
2019-02-25T01:07:03.940Z,1041
2019-02-25T01:08:03.608Z,1041
2019-02-25T01:09:03.817Z,1041
2019-02-25T01:10:04.167Z,1041
2019-02-25T01:11:03.047Z,1041
2019-02-25T01:12:03.415Z,1041
2019-02-25T01:13:03.622Z,1041.1
2019-02-25T01:14:03.367Z,1041
2019-02-25T01:15:03.792Z,1041
2019-02-25T01:16:03.786Z,1041
2019-02-25T01:17:03.247Z,1041
2019-02-25T01:18:03.740Z,1040.9
2019-02-25T01:19:03.938Z,1040.9
2019-02-25T01:20:03.310Z,1041
2019-02-25T01:21:03.462Z,1041
2019-02-25T01:22:02.978Z,1041.1
2019-02-25T01:23:03.377Z,1041.1
2019-02-25T01:24:02.834Z,1041
2019-02-25T01:25:03.333Z,1041.1
2019-02-25T01:26:03.786Z,1041
2019-02-25T01:27:03.368Z,1041.1
2019-02-25T01:28:03.213Z,1041.1
2019-02-25T01:29:03.318Z,1041.1
2019-02-25T01:30:03.457Z,1041.1
2019-02-25T01:31:03.896Z,1041
2019-02-25T01:32:03.022Z,1041.1
2019-02-25T01:33:03.759Z,1041
2019-02-25T01:34:04.040Z,1041.1
2019-02-25T01:35:03.577Z,1041
2019-02-25T01:36:03.780Z,1041
2019-02-25T01:37:02.796Z,1041
2019-02-25T01:38:03.300Z,1041
2019-02-25T01:39:03.891Z,1041
2019-02-25T01:40:03.387Z,1041
2019-02-25T01:41:03.502Z,1040.9
2019-02-25T01:42:03.040Z,1040.9
2019-02-25T01:43:03.512Z,1040.9
2019-02-25T01:44:03.138Z,1041
2019-02-25T01:45:03.406Z,1041
2019-02-25T01:46:03.651Z,1040.9
2019-02-25T01:47:03.803Z,1040.9
2019-02-25T01:48:03.640Z,1040.9
2019-02-25T01:49:03.777Z,1040.9
2019-02-25T01:50:03.522Z,1040.9
2019-02-25T01:51:03.682Z,1041
2019-02-25T01:52:03.333Z,1040.9
2019-02-25T01:53:03.721Z,1040.8
2019-02-25T01:54:04.066Z,1040.9
2019-02-25T01:55:03.711Z,1040.8
2019-02-25T01:56:02.889Z,1040.8
2019-02-25T01:57:03.522Z,1040.8
2019-02-25T01:58:03.719Z,1040.8
2019-02-25T01:59:03.052Z,1040.8
2019-02-25T02:00:03.265Z,1040.6
2019-02-25T02:01:03.489Z,1040.8
2019-02-25T02:02:03.299Z,1040.6
2019-02-25T02:03:03.309Z,1040.6
2019-02-25T02:04:03.367Z,1040.6
2019-02-25T02:05:03.544Z,1040.6
2019-02-25T02:06:03.128Z,1040.7
2019-02-25T02:07:03.692Z,1040.6
2019-02-25T02:08:03.087Z,1040.6
2019-02-25T02:09:03.847Z,1040.6
2019-02-25T02:10:03.090Z,1040.6
2019-02-25T02:11:03.576Z,1040.6
2019-02-25T02:12:03.864Z,1040.6
2019-02-25T02:13:03.719Z,1040.5
2019-02-25T02:14:03.589Z,1040.6
2019-02-25T02:15:03.910Z,1040.6
2019-02-25T02:16:03.317Z,1040.7
2019-02-25T02:17:03.288Z,1040.6
2019-02-25T02:18:03.029Z,1040.7
2019-02-25T02:19:03.584Z,1040.7
2019-02-25T02:20:03.139Z,1040.7
2019-02-25T02:21:03.591Z,1040.7
2019-02-25T02:22:03.188Z,1040.8
2019-02-25T02:23:03.674Z,1040.8
2019-02-25T02:24:03.229Z,1040.7
2019-02-25T02:25:03.587Z,1040.8
2019-02-25T02:26:03.938Z,1040.7
2019-02-25T02:27:03.344Z,1040.7
2019-02-25T02:28:03.612Z,1040.8
2019-02-25T02:29:03.630Z,1040.8
2019-02-25T02:30:03.663Z,1040.8
2019-02-25T02:31:03.972Z,1040.8
2019-02-25T02:32:03.563Z,1040.8
2019-02-25T02:33:02.811Z,1040.8
2019-02-25T02:34:03.757Z,1040.7
2019-02-25T02:35:02.912Z,1040.8
2019-02-25T02:36:03.664Z,1040.8
2019-02-25T02:37:03.888Z,1040.8
2019-02-25T02:38:03.604Z,1040.8
2019-02-25T02:39:03.241Z,1040.7
2019-02-25T02:40:03.728Z,1040.8
2019-02-25T02:41:02.982Z,1040.8
2019-02-25T02:42:03.628Z,1040.8
2019-02-25T02:43:03.256Z,1040.8
2019-02-25T02:44:03.651Z,1040.8
2019-02-25T02:45:03.957Z,1040.9
2019-02-25T02:46:03.331Z,1040.9
2019-02-25T02:47:03.000Z,1040.8
2019-02-25T02:48:03.489Z,1040.9
2019-02-25T02:49:03.328Z,1040.9
2019-02-25T02:50:03.895Z,1040.9
2019-02-25T02:51:03.512Z,1040.9
2019-02-25T02:52:03.895Z,1041
2019-02-25T02:53:03.636Z,1041
2019-02-25T02:54:03.682Z,1041
2019-02-25T02:55:03.603Z,1041
2019-02-25T02:56:03.894Z,1040.8
2019-02-25T02:57:03.249Z,1040.8
2019-02-25T02:58:03.932Z,1041
2019-02-25T02:59:03.175Z,1040.8
2019-02-25T03:00:04.085Z,1040.8
2019-02-25T03:01:03.106Z,1040.8
2019-02-25T03:02:03.636Z,1040.7
2019-02-25T03:03:03.881Z,1040.7
2019-02-25T03:04:03.422Z,1040.8
2019-02-25T03:05:03.711Z,1040.7
2019-02-25T03:06:03.425Z,1040.7
2019-02-25T03:07:03.266Z,1040.7
2019-02-25T03:08:03.922Z,1040.7
2019-02-25T03:09:03.310Z,1040.7
2019-02-25T03:10:03.255Z,1040.7
2019-02-25T03:11:03.324Z,1040.6
2019-02-25T03:12:03.238Z,1040.7
2019-02-25T03:13:03.507Z,1040.6
2019-02-25T03:14:02.905Z,1040.6
2019-02-25T03:15:03.192Z,1040.5
2019-02-25T03:16:03.758Z,1040.5
2019-02-25T03:17:03.507Z,1040.5
2019-02-25T03:18:03.226Z,1040.6
2019-02-25T03:19:03.647Z,1040.6
2019-02-25T03:20:04.019Z,1040.6
2019-02-25T03:21:03.252Z,1040.5
2019-02-25T03:22:03.818Z,1040.6
2019-02-25T03:23:03.158Z,1040.5
2019-02-25T03:24:03.234Z,1040.5
2019-02-25T03:25:03.082Z,1040.4
2019-02-25T03:26:03.961Z,1040.4
2019-02-25T03:27:03.024Z,1040.5
2019-02-25T03:28:03.783Z,1040.4
2019-02-25T03:29:03.870Z,1040.5
2019-02-25T03:30:03.421Z,1040.4
2019-02-25T03:31:03.869Z,1040.5
2019-02-25T03:32:03.241Z,1040.4
2019-02-25T03:33:03.725Z,1040.4
2019-02-25T03:34:03.591Z,1040.4
2019-02-25T03:35:03.386Z,1040.4
2019-02-25T03:36:03.938Z,1040.5
2019-02-25T03:37:03.093Z,1040.4
2019-02-25T03:38:03.812Z,1040.4
2019-02-25T03:39:03.063Z,1040.4
2019-02-25T03:40:03.858Z,1040.4
2019-02-25T03:41:02.968Z,1040.3
2019-02-25T03:42:03.482Z,1040.4
2019-02-25T03:43:03.226Z,1040.4
2019-02-25T03:44:03.647Z,1040.6
2019-02-25T03:45:02.904Z,1040.5
2019-02-25T03:46:03.586Z,1040.5
2019-02-25T03:47:04.137Z,1040.4
2019-02-25T03:48:03.345Z,1040.4
2019-02-25T03:49:03.591Z,1040.5
2019-02-25T03:50:03.385Z,1040.5
2019-02-25T03:51:03.563Z,1040.5
2019-02-25T03:52:03.298Z,1040.5
2019-02-25T03:53:03.427Z,1040.5
2019-02-25T03:54:03.880Z,1040.4
2019-02-25T03:55:03.074Z,1040.5
2019-02-25T03:56:02.891Z,1040.5
2019-02-25T03:57:03.593Z,1040.5
2019-02-25T03:58:03.730Z,1040.5
2019-02-25T03:59:03.291Z,1040.5
2019-02-25T04:00:03.844Z,1040.5
2019-02-25T04:01:03.954Z,1040.5
2019-02-25T04:02:03.216Z,1040.6
2019-02-25T04:03:03.397Z,1040.4
2019-02-25T04:04:03.131Z,1040.5
2019-02-25T04:05:03.298Z,1040.5
2019-02-25T04:06:03.199Z,1040.5
2019-02-25T04:07:03.042Z,1040.5
2019-02-25T04:08:03.614Z,1040.5
2019-02-25T04:09:03.273Z,1040.5
2019-02-25T04:10:03.630Z,1040.5
2019-02-25T04:11:03.382Z,1040.5
2019-02-25T04:12:03.569Z,1040.6
2019-02-25T04:13:03.306Z,1040.5
2019-02-25T04:14:03.769Z,1040.4
2019-02-25T04:15:03.355Z,1040.5
2019-02-25T04:16:03.614Z,1040.5
2019-02-25T04:17:03.220Z,1040.5
2019-02-25T04:18:03.227Z,1040.5
2019-02-25T04:19:03.917Z,1040.5
2019-02-25T04:20:03.344Z,1040.5
2019-02-25T04:21:03.076Z,1040.5
2019-02-25T04:22:03.394Z,1040.5
2019-02-25T04:23:03.062Z,1040.5
2019-02-25T04:24:03.486Z,1040.5
2019-02-25T04:25:03.940Z,1040.5
2019-02-25T04:26:03.208Z,1040.5
2019-02-25T04:27:03.596Z,1040.5
2019-02-25T04:28:03.536Z,1040.6
2019-02-25T04:29:03.901Z,1040.6
2019-02-25T04:30:03.856Z,1040.6
2019-02-25T04:31:03.577Z,1040.6
2019-02-25T04:32:02.702Z,1040.6
2019-02-25T04:33:03.774Z,1040.6
2019-02-25T04:34:03.908Z,1040.6
2019-02-25T04:35:03.320Z,1040.6
2019-02-25T04:36:03.308Z,1040.6
2019-02-25T04:37:03.313Z,1040.7
2019-02-25T04:38:03.755Z,1040.6
2019-02-25T04:39:03.974Z,1040.6
2019-02-25T04:40:03.206Z,1040.6
2019-02-25T04:41:03.251Z,1040.5
2019-02-25T04:42:03.161Z,1040.5
2019-02-25T04:43:03.648Z,1040.6
2019-02-25T04:44:03.283Z,1040.5
2019-02-25T04:45:03.752Z,1040.6
2019-02-25T04:46:02.988Z,1040.6
2019-02-25T04:47:03.506Z,1040.7
2019-02-25T04:48:03.017Z,1040.7
2019-02-25T04:49:03.336Z,1040.6
2019-02-25T04:50:03.730Z,1040.5
2019-02-25T04:51:03.126Z,1040.6
2019-02-25T04:52:03.891Z,1040.5
2019-02-25T04:53:03.964Z,1040.5
2019-02-25T04:54:03.912Z,1040.4
2019-02-25T04:55:03.663Z,1040.4
2019-02-25T04:56:03.514Z,1040.4
2019-02-25T04:57:03.381Z,1040.5
2019-02-25T04:58:03.726Z,1040.5
2019-02-25T04:59:03.357Z,1040.5
2019-02-25T05:00:03.942Z,1040.5
2019-02-25T05:01:03.210Z,1040.6
2019-02-25T05:02:03.293Z,1040.6
2019-02-25T05:03:03.350Z,1040.4
2019-02-25T05:04:03.127Z,1040.6
2019-02-25T05:05:03.614Z,1040.6
2019-02-25T05:06:03.679Z,1040.6
2019-02-25T05:07:02.877Z,1040.6
2019-02-25T05:08:03.577Z,1040.6
2019-02-25T05:09:03.318Z,1040.6
2019-02-25T05:10:03.331Z,1040.7
2019-02-25T05:11:03.945Z,1040.6
2019-02-25T05:12:03.182Z,1040.6
2019-02-25T05:13:03.393Z,1040.8
2019-02-25T05:14:03.626Z,1040.8
2019-02-25T05:15:03.257Z,1040.8
2019-02-25T05:16:03.606Z,1040.9
2019-02-25T05:17:03.323Z,1040.9
2019-02-25T05:18:03.952Z,1040.8
2019-02-25T05:19:03.123Z,1040.8
2019-02-25T05:20:03.580Z,1040.7
2019-02-25T05:21:03.839Z,1040.6
2019-02-25T05:22:03.322Z,1040.7
2019-02-25T05:23:03.913Z,1040.8
2019-02-25T05:24:03.330Z,1040.6
2019-02-25T05:25:03.901Z,1040.6
2019-02-25T05:26:02.642Z,1040.6
2019-02-25T05:27:03.639Z,1040.6
2019-02-25T05:28:03.990Z,1040.6
2019-02-25T05:29:03.430Z,1040.7
2019-02-25T05:30:04.101Z,1040.8
2019-02-25T05:31:03.187Z,1040.7
2019-02-25T05:32:03.533Z,1040.8
2019-02-25T05:33:03.023Z,1040.8
2019-02-25T05:34:02.927Z,1040.7
2019-02-25T05:35:03.911Z,1040.7
2019-02-25T05:36:03.098Z,1040.7
2019-02-25T05:37:03.905Z,1040.6
2019-02-25T05:38:04.147Z,1040.6
2019-02-25T05:39:03.886Z,1040.6
2019-02-25T05:40:03.189Z,1040.6
2019-02-25T05:41:02.999Z,1040.6
2019-02-25T05:42:03.670Z,1040.6
2019-02-25T05:43:03.966Z,1040.7
2019-02-25T05:44:03.085Z,1040.6
2019-02-25T05:45:03.427Z,1040.6
2019-02-25T05:46:02.960Z,1040.7
2019-02-25T05:47:03.185Z,1040.6
2019-02-25T05:48:02.935Z,1040.7
2019-02-25T05:49:03.642Z,1040.7
2019-02-25T05:50:03.152Z,1040.7
2019-02-25T05:51:03.761Z,1040.7
2019-02-25T05:52:03.889Z,1040.7
2019-02-25T05:53:03.409Z,1040.8
2019-02-25T05:54:03.638Z,1040.7
2019-02-25T05:55:03.903Z,1040.7
2019-02-25T05:56:03.678Z,1040.8
2019-02-25T05:57:03.312Z,1040.7
2019-02-25T05:58:03.446Z,1040.7
2019-02-25T05:59:04.037Z,1040.7
2019-02-25T06:00:03.189Z,1040.7
2019-02-25T06:01:03.676Z,1040.7
2019-02-25T06:02:05.837Z,1040.6
2019-02-25T06:03:04.164Z,1040.7
2019-02-25T06:04:03.193Z,1040.7
2019-02-25T06:05:03.884Z,1040.7
2019-02-25T06:06:03.246Z,1040.6
2019-02-25T06:07:03.588Z,1040.6
2019-02-25T06:08:03.680Z,1040.6
2019-02-25T06:09:03.587Z,1040.7
2019-02-25T06:10:03.749Z,1040.6
2019-02-25T06:11:03.427Z,1040.6
2019-02-25T06:12:03.108Z,1040.6
2019-02-25T06:13:03.519Z,1040.5
2019-02-25T06:14:04.024Z,1040.7
2019-02-25T06:15:03.597Z,1040.6
2019-02-25T06:16:03.100Z,1040.7
2019-02-25T06:17:03.535Z,1040.6
2019-02-25T06:18:03.080Z,1040.6
2019-02-25T06:19:03.511Z,1040.7
2019-02-25T06:20:03.241Z,1040.7
2019-02-25T06:21:03.327Z,1040.7
2019-02-25T06:22:04.006Z,1040.7
2019-02-25T06:23:03.735Z,1040.6
2019-02-25T06:24:03.904Z,1040.6
2019-02-25T06:25:03.547Z,1040.6
2019-02-25T06:26:03.665Z,1040.7
2019-02-25T06:27:03.483Z,1040.6
2019-02-25T06:28:03.837Z,1040.7
2019-02-25T06:29:03.082Z,1040.6
2019-02-25T06:30:03.815Z,1040.6
2019-02-25T06:31:04.125Z,1040.6
2019-02-25T06:32:03.271Z,1040.5
2019-02-25T06:33:03.284Z,1040.4
2019-02-25T06:34:03.421Z,1040.4
2019-02-25T06:35:03.320Z,1040.4
2019-02-25T06:36:03.506Z,1040.5
2019-02-25T06:37:03.952Z,1040.4
2019-02-25T06:38:03.611Z,1040.5
2019-02-25T06:39:03.892Z,1040.3
2019-02-25T06:40:03.731Z,1040.4
2019-02-25T06:41:04.015Z,1040.3
2019-02-25T06:42:03.555Z,1040.3
2019-02-25T06:43:03.566Z,1040.3
2019-02-25T06:44:03.419Z,1040.2
2019-02-25T06:45:04.061Z,1040.3
2019-02-25T06:46:03.669Z,1040.3
2019-02-25T06:47:03.852Z,1040.2
2019-02-25T06:48:03.785Z,1040.2
2019-02-25T06:49:03.784Z,1040.3
2019-02-25T06:50:03.489Z,1040.1
2019-02-25T06:51:03.968Z,1040.1
2019-02-25T06:52:03.285Z,1040.2
2019-02-25T06:53:03.669Z,1040.1
2019-02-25T06:54:03.331Z,1040.2
2019-02-25T06:55:03.630Z,1040.3
2019-02-25T06:56:03.212Z,1040.3
2019-02-25T06:57:03.765Z,1040.2
2019-02-25T06:58:03.077Z,1040.2
2019-02-25T06:59:03.886Z,1040.2
2019-02-25T07:00:03.394Z,1040.2
2019-02-25T07:01:03.820Z,1040.2
2019-02-25T07:02:03.190Z,1040.2
2019-02-25T07:03:04.133Z,1040.2
2019-02-25T07:04:03.622Z,1040.3
2019-02-25T07:05:03.385Z,1040.3
2019-02-25T07:06:03.792Z,1040.3
2019-02-25T07:07:03.272Z,1040.4
2019-02-25T07:08:03.454Z,1040.4
2019-02-25T07:09:02.719Z,1040.3
2019-02-25T07:10:03.260Z,1040.2
2019-02-25T07:11:03.814Z,1040.2
2019-02-25T07:12:03.966Z,1040.1
2019-02-25T07:13:03.784Z,1040.2
2019-02-25T07:14:03.790Z,1040.1
2019-02-25T07:15:03.523Z,1040.1
2019-02-25T07:16:03.875Z,1040.1
2019-02-25T07:17:03.439Z,1040
2019-02-25T07:18:03.944Z,1039.9
2019-02-25T07:19:03.660Z,1039.7
2019-02-25T07:20:03.829Z,1039.6
2019-02-25T07:21:03.595Z,1039.6
2019-02-25T07:22:02.994Z,1039.4
2019-02-25T07:23:03.819Z,1039.5
2019-02-25T07:24:03.267Z,1039.3
2019-02-25T07:25:03.757Z,1039.2
2019-02-25T07:26:03.896Z,1039.1
2019-02-25T07:27:03.591Z,1039.1
2019-02-25T07:28:03.253Z,1039.2
2019-02-25T07:29:03.894Z,1039.1
2019-02-25T07:30:03.011Z,1039
2019-02-25T07:31:03.412Z,1039
2019-02-25T07:32:03.259Z,1038.9
2019-02-25T07:33:03.734Z,1038.9
2019-02-25T07:34:03.191Z,1038.9
2019-02-25T07:35:03.539Z,1038.9
2019-02-25T07:36:03.218Z,1039
2019-02-25T07:37:03.180Z,1038.9
2019-02-25T07:38:02.967Z,1038.9
2019-02-25T07:39:03.325Z,1038.8
2019-02-25T07:40:04.156Z,1038.9
2019-02-25T07:41:03.506Z,1038.9
2019-02-25T07:42:02.988Z,1038.9
2019-02-25T07:43:03.662Z,1038.8
2019-02-25T07:44:03.391Z,1038.9
2019-02-25T07:45:03.328Z,1038.7
2019-02-25T07:46:03.201Z,1038.7
2019-02-25T07:47:03.648Z,1038.7
2019-02-25T07:48:03.066Z,1038.8
2019-02-25T07:49:03.279Z,1038.8
2019-02-25T07:50:03.623Z,1038.8
2019-02-25T07:51:03.032Z,1038.8
2019-02-25T07:52:03.368Z,1038.6
2019-02-25T07:53:03.133Z,1038.6
2019-02-25T07:54:03.797Z,1038.6
2019-02-25T07:55:03.295Z,1038.7
2019-02-25T07:56:03.584Z,1038.7
2019-02-25T07:57:04.020Z,1038.7
2019-02-25T07:58:03.098Z,1038.6
2019-02-25T07:59:03.601Z,1038.7
2019-02-25T08:00:02.934Z,1038.7
2019-02-25T08:01:04.037Z,1038.8
2019-02-25T08:02:03.613Z,1038.7
2019-02-25T08:03:03.024Z,1038.6
2019-02-25T08:04:03.629Z,1038.6
2019-02-25T08:05:03.984Z,1038.7
2019-02-25T08:06:03.191Z,1038.6
2019-02-25T08:07:03.197Z,1038.5
2019-02-25T08:08:03.102Z,1038.4
2019-02-25T08:09:03.778Z,1038.4
2019-02-25T08:10:03.234Z,1038.5
2019-02-25T08:11:03.514Z,1038.4
2019-02-25T08:12:03.011Z,1038.3
2019-02-25T08:13:03.340Z,1038.3
2019-02-25T08:14:03.276Z,1038.3
2019-02-25T08:15:04.005Z,1038.2
2019-02-25T08:16:03.980Z,1038.2
2019-02-25T08:17:05.019Z,1038.2
2019-02-25T08:18:03.186Z,1038.2
2019-02-25T08:19:03.489Z,1038.3
2019-02-25T08:20:03.336Z,1038.3
2019-02-25T08:21:03.744Z,1038.3
2019-02-25T08:22:03.021Z,1038.4
2019-02-25T08:23:03.759Z,1038.4
2019-02-25T08:24:04.109Z,1038.4
2019-02-25T08:25:03.569Z,1038.5
2019-02-25T08:26:03.667Z,1038.6
2019-02-25T08:27:03.482Z,1038.7
2019-02-25T08:28:03.952Z,1038.7
2019-02-25T08:29:03.093Z,1038.7
2019-02-25T08:30:04.108Z,1038.7
2019-02-25T08:31:03.238Z,1038.6
2019-02-25T08:32:03.678Z,1038.7
2019-02-25T08:33:03.192Z,1038.8
2019-02-25T08:34:03.385Z,1038.6
2019-02-25T08:35:04.195Z,1038.7
2019-02-25T08:36:02.483Z,1038.7
2019-02-25T08:37:03.285Z,1038.7
2019-02-25T08:38:03.252Z,1038.5
2019-02-25T08:39:04.167Z,1038.5
2019-02-25T08:40:03.460Z,1038.4
2019-02-25T08:41:04.319Z,1038.4
2019-02-25T08:42:03.189Z,1038.6
2019-02-25T08:43:03.583Z,1038.3
2019-02-25T08:44:02.931Z,1038.4
2019-02-25T08:45:03.763Z,1038.3
2019-02-25T08:46:03.126Z,1038.3
2019-02-25T08:47:03.279Z,1038.1
2019-02-25T08:48:03.256Z,1038.1
2019-02-25T08:49:03.688Z,1038.2
2019-02-25T08:50:03.893Z,1038.1
2019-02-25T08:51:03.476Z,1038
2019-02-25T08:52:02.945Z,1038
2019-02-25T08:53:03.775Z,1038.1
2019-02-25T08:54:03.730Z,1038
2019-02-25T08:55:03.681Z,1038
2019-02-25T08:56:03.413Z,1037.9
2019-02-25T08:57:03.605Z,1037.9
2019-02-25T08:58:03.328Z,1038
2019-02-25T08:59:03.340Z,1038
2019-02-25T09:00:03.653Z,1038
2019-02-25T09:01:03.841Z,1038
2019-02-25T09:02:03.445Z,1037.9
2019-02-25T09:03:03.075Z,1037.8
2019-02-25T09:04:03.041Z,1037.8
2019-02-25T09:05:03.074Z,1037.9
2019-02-25T09:06:03.704Z,1037.8
2019-02-25T09:07:03.087Z,1037.9
2019-02-25T09:08:03.104Z,1037.9
2019-02-25T09:09:04.091Z,1037.7
2019-02-25T09:10:03.840Z,1037.9
2019-02-25T09:11:02.885Z,1037.9
2019-02-25T09:12:03.247Z,1037.9
2019-02-25T09:13:03.353Z,1038
2019-02-25T09:14:03.390Z,1038
2019-02-25T09:15:03.563Z,1038.1
2019-02-25T09:16:03.423Z,1038
2019-02-25T09:17:03.466Z,1038.1
2019-02-25T09:18:03.268Z,1038.1
2019-02-25T09:19:03.028Z,1038
2019-02-25T09:20:03.836Z,1038.1
2019-02-25T09:21:03.860Z,1038.1
2019-02-25T09:22:03.678Z,1038.1
2019-02-25T09:23:03.168Z,1038.1
2019-02-25T09:24:03.606Z,1038.2
2019-02-25T09:25:03.942Z,1038.2
2019-02-25T09:26:03.172Z,1038.2
2019-02-25T09:27:03.908Z,1038.4
2019-02-25T09:28:03.196Z,1038.3
2019-02-25T09:29:03.821Z,1038.2
2019-02-25T09:30:03.410Z,1038.2
2019-02-25T09:31:06.095Z,1038.3
2019-02-25T09:32:03.447Z,1038.4
2019-02-25T09:33:03.949Z,1038.5
2019-02-25T09:34:03.377Z,1038.5
2019-02-25T09:35:03.736Z,1038.5
2019-02-25T09:36:03.601Z,1038.3
2019-02-25T09:37:03.363Z,1038.4
2019-02-25T09:38:03.452Z,1038.4
2019-02-25T09:39:03.949Z,1038.5
2019-02-25T09:40:03.448Z,1038.6
2019-02-25T09:41:03.657Z,1038.6
2019-02-25T09:42:03.459Z,1038.4
2019-02-25T09:43:03.707Z,1038.6
2019-02-25T09:44:03.308Z,1038.6
2019-02-25T09:45:03.623Z,1038.6
2019-02-25T09:46:03.125Z,1038.5
2019-02-25T09:47:05.543Z,1038.5
2019-02-25T09:48:03.047Z,1038.4
2019-02-25T09:49:03.802Z,1038.4
2019-02-25T09:50:03.342Z,1038.4
2019-02-25T09:51:03.688Z,1038.3
2019-02-25T09:52:03.066Z,1038.4
2019-02-25T09:53:03.562Z,1038.4
2019-02-25T09:54:03.475Z,1038.4
2019-02-25T09:55:03.740Z,1038.4
2019-02-25T09:56:03.262Z,1038.4
2019-02-25T09:57:03.810Z,1038.2
2019-02-25T09:58:03.338Z,1038.2
2019-02-25T09:59:03.604Z,1038.3
2019-02-25T10:00:03.194Z,1038.2
2019-02-25T10:01:03.132Z,1038.3
2019-02-25T10:02:03.222Z,1038.2
2019-02-25T10:03:03.482Z,1038.2
2019-02-25T10:04:03.273Z,1038.1
2019-02-25T10:05:04.157Z,1038.1
2019-02-25T10:06:03.259Z,1038
2019-02-25T10:07:03.842Z,1037.9
2019-02-25T10:08:03.525Z,1037.9
2019-02-25T10:09:03.652Z,1037.8
2019-02-25T10:10:03.238Z,1037.8
2019-02-25T10:11:03.567Z,1037.8
2019-02-25T10:12:03.347Z,1037.8
2019-02-25T10:13:02.283Z,1037.7
2019-02-25T10:14:03.027Z,1037.7
2019-02-25T10:15:05.464Z,1037.7
2019-02-25T10:16:02.978Z,1037.8
2019-02-25T10:17:03.201Z,1038
2019-02-25T10:18:03.926Z,1037.9
2019-02-25T10:19:03.584Z,1037.8
2019-02-25T10:20:03.945Z,1037.8
2019-02-25T10:21:03.656Z,1037.8
2019-02-25T10:22:04.338Z,1037.8
2019-02-25T10:23:03.589Z,1037.8
2019-02-25T10:24:03.825Z,1037.7
2019-02-25T10:25:03.505Z,1037.7
2019-02-25T10:26:03.804Z,1037.7
2019-02-25T10:27:02.909Z,1037.6
2019-02-25T10:28:03.865Z,1037.6
2019-02-25T10:29:03.351Z,1037.6
2019-02-25T10:30:04.545Z,1037.6
2019-02-25T10:31:03.596Z,1037.7
2019-02-25T10:32:06.944Z,1037.7
2019-02-25T10:33:03.038Z,1037.6
2019-02-25T10:34:04.109Z,1037.6
2019-02-25T10:35:04.127Z,1037.6
2019-02-25T10:36:03.563Z,1037.6
2019-02-25T10:37:03.985Z,1037.5
2019-02-25T10:38:03.580Z,1037.5
2019-02-25T10:39:03.726Z,1037.5
2019-02-25T10:40:03.669Z,1037.5
2019-02-25T10:41:03.366Z,1037.5
2019-02-25T10:42:03.943Z,1037.5
2019-02-25T10:43:04.099Z,1037.5
2019-02-25T10:44:08.847Z,1037.4
2019-02-25T10:45:13.671Z,1037.5
2019-02-25T10:46:03.254Z,1037.5
2019-02-25T10:47:03.686Z,1037.5
2019-02-25T10:48:03.349Z,1037.5
2019-02-25T10:49:12.147Z,1037.5
2019-02-25T10:50:07.684Z,1037.4
2019-02-25T10:51:13.902Z,1037.3
2019-02-25T10:52:03.156Z,1037.3
2019-02-25T10:53:04.180Z,1037.3
2019-02-25T10:54:03.765Z,1037.3
2019-02-25T10:55:03.324Z,1037.3
2019-02-25T10:56:03.757Z,1037.3
2019-02-25T10:57:03.087Z,1037.2
2019-02-25T10:58:04.120Z,1037.2
2019-02-25T10:59:08.532Z,1037.3
2019-02-25T11:00:13.994Z,1037.1
2019-02-25T11:01:02.990Z,1037.1
2019-02-25T11:02:03.407Z,1037
2019-02-25T11:03:03.277Z,1037.1
2019-02-25T11:04:03.441Z,1037
2019-02-25T11:05:04.000Z,1037.1
2019-02-25T11:06:03.720Z,1037.1
2019-02-25T11:07:09.970Z,1037.1
2019-02-25T11:08:14.042Z,1037.2
2019-02-25T11:09:03.657Z,1037.1
2019-02-25T11:10:03.125Z,1036.9
2019-02-25T11:11:03.753Z,1037
2019-02-25T11:12:04.006Z,1037
2019-02-25T11:13:04.673Z,1036.9
2019-02-25T11:14:09.434Z,1036.9
2019-02-25T11:15:16.078Z,1036.9
2019-02-25T11:16:03.152Z,1036.8
2019-02-25T11:17:03.304Z,1036.6
2019-02-25T11:18:03.079Z,1036.8
2019-02-25T11:19:03.475Z,1036.8
2019-02-25T11:20:06.110Z,1036.7
2019-02-25T11:21:10.867Z,1036.6
2019-02-25T11:22:03.147Z,1036.5
2019-02-25T11:23:03.353Z,1036.5
2019-02-25T11:24:03.079Z,1036.5
2019-02-25T11:25:03.567Z,1036.6
2019-02-25T11:26:03.926Z,1036.4
2019-02-25T11:27:07.735Z,1036.5
2019-02-25T11:28:26.321Z,1036.5
2019-02-25T11:29:13.401Z,1036.5
2019-02-25T11:30:03.996Z,1036.6
2019-02-25T11:31:03.781Z,1036.5
2019-02-25T11:32:03.685Z,1036.4
2019-02-25T11:33:03.287Z,1036.3
2019-02-25T11:34:08.394Z,1036.4
2019-02-25T11:35:13.219Z,1036.3
2019-02-25T11:36:03.503Z,1036.3
2019-02-25T11:37:03.118Z,1036.3
2019-02-25T11:38:03.317Z,1036.3
2019-02-25T11:39:09.892Z,1036.3
2019-02-25T11:40:04.736Z,1036.3
2019-02-25T11:41:11.548Z,1036.3
2019-02-25T11:42:20.776Z,1036.3
2019-02-25T11:43:03.921Z,1036.3
2019-02-25T11:44:04.058Z,1036.4
2019-02-25T11:45:04.907Z,1036.3
2019-02-25T11:46:03.346Z,1036.3
2019-02-25T11:47:03.362Z,1036.3
2019-02-25T11:48:03.921Z,1036.2
2019-02-25T11:49:03.289Z,1036.1
2019-02-25T11:50:03.642Z,1036.1
2019-02-25T11:51:03.128Z,1036.1
2019-02-25T11:52:03.824Z,1036.1
2019-02-25T11:53:03.125Z,1036.1
2019-02-25T11:54:03.847Z,1035.9
2019-02-25T11:55:03.287Z,1036.1
2019-02-25T11:56:03.921Z,1035.9
2019-02-25T11:57:03.224Z,1035.9
2019-02-25T11:58:03.809Z,1036.1
2019-02-25T11:59:03.414Z,1036
2019-02-25T12:00:03.162Z,1036.1
2019-02-25T12:01:03.616Z,1036.1
2019-02-25T12:02:03.950Z,1036
2019-02-25T12:03:03.570Z,1036
2019-02-25T12:04:03.141Z,1036
2019-02-25T12:05:03.129Z,1035.8
2019-02-25T12:06:02.930Z,1035.8
2019-02-25T12:07:03.353Z,1035.8
2019-02-25T12:08:03.551Z,1035.8
2019-02-25T12:09:03.574Z,1035.6
2019-02-25T12:10:03.112Z,1035.6
2019-02-25T12:11:03.168Z,1035.8
2019-02-25T12:12:03.060Z,1035.7
2019-02-25T12:13:03.365Z,1035.6
2019-02-25T12:14:03.298Z,1035.7
2019-02-25T12:15:03.635Z,1035.7
2019-02-25T12:16:03.151Z,1035.8
2019-02-25T12:17:03.194Z,1036
2019-02-25T12:18:03.955Z,1036
2019-02-25T12:19:03.392Z,1035.9
2019-02-25T12:20:03.892Z,1036
2019-02-25T12:21:03.337Z,1036.1
2019-02-25T12:22:03.704Z,1036.2
2019-02-25T12:23:03.196Z,1036.2
2019-02-25T12:24:03.582Z,1036.1
2019-02-25T12:25:03.108Z,1036.3
2019-02-25T12:26:03.728Z,1036.2
2019-02-25T12:27:03.990Z,1036.2
2019-02-25T12:28:03.342Z,1036.2
2019-02-25T12:29:11.496Z,1036.1
2019-02-25T12:30:03.420Z,1036.1
2019-02-25T12:31:03.998Z,1036.2
2019-02-25T12:32:03.927Z,1036.2